createdAt,value
2022-08-22T00:01:36.963Z,98079.34
2022-08-22T00:06:58.488Z,98079.50
2022-08-22T00:12:19.935Z,98087.50
2022-08-22T00:17:41.205Z,98088.06
2022-08-22T00:22:55.770Z,98079.50
2022-08-22T00:28:08.283Z,98083.94
2022-08-22T00:33:29.026Z,98086.34
2022-08-22T00:38:43.774Z,98084.78
2022-08-22T00:44:41.751Z,98084.78
2022-08-22T00:50:38.180Z,98083.19
2022-08-22T00:56:19.006Z,98086.34
2022-08-22T01:01:32.482Z,98073.25
2022-08-22T01:06:54.786Z,98069.25
2022-08-22T01:12:34.487Z,98063.41
2022-08-22T01:18:24.262Z,98057.13
2022-08-22T01:24:24.309Z,98056.69
2022-08-22T01:30:30.305Z,98052.00
2022-08-22T01:36:10.783Z,98055.16
2022-08-22T01:41:44.912Z,98042.47
2022-08-22T01:47:00.468Z,98037.03
2022-08-22T01:52:19.667Z,98032.75
2022-08-22T01:57:26.161Z,98036.16
2022-08-22T02:02:51.571Z,98035.31
2022-08-22T02:08:04.851Z,98046.28
2022-08-22T02:13:26.171Z,98037.59
2022-08-22T02:18:51.534Z,98034.47
2022-08-22T02:24:15.603Z,98027.19
2022-08-22T02:29:30.896Z,98030.44
2022-08-22T02:34:43.541Z,98023.56
2022-08-22T02:39:57.043Z,98019.28
2022-08-22T02:45:22.137Z,98017.78
2022-08-22T02:50:39.283Z,98024.28
2022-08-22T02:56:00.708Z,98015.28
2022-08-22T03:01:40.926Z,98010.16
2022-08-22T03:07:04.083Z,98023.22
2022-08-22T03:12:23.664Z,98022.31
2022-08-22T03:17:36.075Z,98023.31
2022-08-22T03:22:53.247Z,98022.94
2022-08-22T03:28:07.470Z,98030.31
2022-08-22T03:33:21.625Z,98031.00
2022-08-22T03:38:39.782Z,98026.00
2022-08-22T03:44:27.268Z,98031.25
2022-08-22T03:50:38.495Z,98030.66
2022-08-22T03:56:44.089Z,98024.97
2022-08-22T04:02:26.206Z,98032.28
2022-08-22T04:08:38.287Z,98030.31
2022-08-22T04:14:32.430Z,98031.38
2022-08-22T04:20:08.366Z,98048.31
2022-08-22T04:25:23.155Z,98050.59
2022-08-22T04:30:43.743Z,98053.06
2022-08-22T04:36:03.529Z,98058.25
2022-08-22T04:41:16.747Z,98053.50
2022-08-22T04:46:37.228Z,98057.09
2022-08-22T04:51:52.174Z,98058.66
2022-08-22T04:57:18.137Z,98057.16
2022-08-22T05:02:27.610Z,98056.78
2022-08-22T05:07:40.833Z,98061.28
2022-08-22T05:12:53.961Z,98060.25
2022-08-22T05:18:07.608Z,98071.81
2022-08-22T05:23:20.778Z,98079.59
2022-08-22T05:28:36.152Z,98066.34
2022-08-22T05:33:45.847Z,98073.28
2022-08-22T05:38:58.025Z,98073.38
2022-08-22T05:44:04.498Z,98079.16
2022-08-22T05:49:20.111Z,98086.84
2022-08-22T05:54:34.638Z,98093.44
2022-08-22T05:59:44.882Z,98105.59
2022-08-22T06:04:55.046Z,98105.31
2022-08-22T06:10:25.904Z,98113.16
2022-08-22T06:15:47.786Z,98108.03
2022-08-22T06:20:59.602Z,98110.91
2022-08-22T06:26:20.864Z,98114.41
2022-08-22T06:31:33.235Z,98120.50
2022-08-22T06:36:42.401Z,98120.41
2022-08-22T06:41:55.040Z,98125.56
2022-08-22T06:47:05.875Z,98124.13
2022-08-22T06:52:23.556Z,98124.59
2022-08-22T06:57:35.989Z,98128.78
2022-08-22T07:02:45.023Z,98117.75
2022-08-22T07:07:51.004Z,98120.88
2022-08-22T07:12:58.852Z,98125.78
2022-08-22T07:18:08.238Z,98132.38
2022-08-22T07:23:31.513Z,98118.53
2022-08-22T07:28:51.520Z,98121.50
2022-08-22T07:34:25.875Z,98115.69
2022-08-22T07:39:38.790Z,98110.41
2022-08-22T07:45:02.925Z,98113.72
2022-08-22T07:50:14.351Z,98115.69
2022-08-22T07:55:23.702Z,98105.81
2022-08-22T08:00:31.528Z,98112.28
2022-08-22T08:05:39.618Z,98110.69
2022-08-22T08:10:44.583Z,98113.88
2022-08-22T08:15:52.554Z,98104.84
2022-08-22T08:21:03.442Z,98110.59
2022-08-22T08:26:12.661Z,98106.38
2022-08-22T08:31:26.027Z,98101.94
2022-08-22T08:36:52.467Z,98100.22
2022-08-22T08:42:59.458Z,98088.63
2022-08-22T08:48:35.874Z,98085.88
2022-08-22T08:54:20.103Z,98091.41
2022-08-22T08:59:44.470Z,98085.44
2022-08-22T09:05:50.243Z,98087.72
2022-08-22T09:11:32.219Z,98090.72
2022-08-22T09:17:02.845Z,98077.06
2022-08-22T09:22:50.009Z,98082.59
2022-08-22T09:28:03.057Z,98081.59
2022-08-22T09:33:17.631Z,98072.03
2022-08-22T09:38:49.705Z,98078.22
2022-08-22T09:44:15.440Z,98078.47
2022-08-22T09:49:32.891Z,98070.41
2022-08-22T09:54:49.101Z,98072.06
2022-08-22T10:00:22.120Z,98064.56
2022-08-22T10:05:44.029Z,98063.91
2022-08-22T10:11:12.838Z,98063.75
2022-08-22T10:16:28.312Z,98063.81
2022-08-22T10:21:43.188Z,98064.31
2022-08-22T10:26:55.743Z,98063.31
2022-08-22T10:32:17.586Z,98059.38
2022-08-22T10:37:31.614Z,98047.47
2022-08-22T10:42:47.785Z,98044.59
2022-08-22T10:48:23.411Z,98040.59
2022-08-22T10:53:46.470Z,98040.09
2022-08-22T10:59:01.166Z,98033.19
2022-08-22T11:04:42.197Z,98035.38
2022-08-22T11:10:00.855Z,98019.88
2022-08-22T11:15:28.313Z,98015.50
2022-08-22T11:20:54.818Z,98000.75
2022-08-22T11:26:30.098Z,97996.56
2022-08-22T11:32:06.515Z,98000.81
2022-08-22T11:37:42.962Z,98000.38
2022-08-22T11:43:00.247Z,97988.22
2022-08-22T11:48:22.069Z,97986.97
2022-08-22T11:53:38.519Z,97985.22
2022-08-22T11:58:59.735Z,97974.28
2022-08-22T12:04:21.872Z,97972.38
2022-08-22T12:09:42.646Z,97979.00
2022-08-22T12:14:58.056Z,97974.44
2022-08-22T12:20:28.351Z,97973.88
2022-08-22T12:26:05.017Z,97966.22
2022-08-22T12:31:31.868Z,97966.78
2022-08-22T12:37:09.262Z,97958.00
2022-08-22T12:42:54.509Z,97955.88
2022-08-22T12:48:19.653Z,97951.66
2022-08-22T12:54:14.538Z,97950.25
2022-08-22T12:59:27.450Z,97937.22
2022-08-22T13:04:36.614Z,97938.50
2022-08-22T13:09:52.347Z,97940.66
2022-08-22T13:15:03.691Z,97929.50
2022-08-22T13:20:21.051Z,97921.41
2022-08-22T13:25:30.786Z,97918.97
2022-08-22T13:30:41.131Z,97916.59
2022-08-22T13:35:51.871Z,97911.69
2022-08-22T13:41:00.804Z,97918.44
2022-08-22T13:46:10.960Z,97910.47
2022-08-22T13:51:27.345Z,97909.25
2022-08-22T13:56:50.393Z,97903.88
2022-08-22T14:02:04.916Z,97896.28
2022-08-22T14:07:32.670Z,97890.47
2022-08-22T14:13:24.057Z,97901.56
2022-08-22T14:18:35.843Z,97895.75
2022-08-22T14:23:40.541Z,97890.66
2022-08-22T14:28:46.812Z,97899.78
2022-08-22T14:33:58.322Z,97891.91
2022-08-22T14:39:11.843Z,97887.75
2022-08-22T14:44:24.359Z,97874.84
2022-08-22T14:49:47.864Z,97877.13
2022-08-22T14:55:12.205Z,97881.81
2022-08-22T15:00:32.210Z,97871.91
2022-08-22T15:05:46.392Z,97861.88
2022-08-22T15:11:05.237Z,97857.72
2022-08-22T15:16:22.962Z,97860.13
2022-08-22T15:21:32.735Z,97857.47
2022-08-22T15:26:50.374Z,97855.25
2022-08-22T15:32:01.451Z,97851.09
2022-08-22T15:37:32.414Z,97844.38
2022-08-22T15:42:42.614Z,97851.38
2022-08-22T15:47:54.390Z,97835.50
2022-08-22T15:53:18.146Z,97846.97
2022-08-22T15:58:25.270Z,97849.69
2022-08-22T16:03:35.358Z,97851.88
2022-08-22T16:08:52.076Z,97849.22
2022-08-22T16:14:25.246Z,97841.31
2022-08-22T16:19:39.731Z,97838.72
2022-08-22T16:25:10.163Z,97839.72
2022-08-22T16:30:16.824Z,97838.06
2022-08-22T16:36:23.766Z,97829.06
2022-08-22T16:41:41.465Z,97839.03
2022-08-22T16:46:48.664Z,97824.72
2022-08-22T16:52:48.835Z,97846.88
2022-08-22T16:58:15.525Z,97821.66
2022-08-22T17:03:37.709Z,97830.94
2022-08-22T17:08:58.336Z,97832.22
2022-08-22T17:14:20.879Z,97834.34
2022-08-22T17:19:46.587Z,97837.97
2022-08-22T17:25:13.867Z,97845.53
2022-08-22T17:30:30.284Z,97858.97
2022-08-22T17:35:55.094Z,97859.34
2022-08-22T17:41:13.078Z,97860.28
2022-08-22T17:46:36.809Z,97859.94
2022-08-22T17:51:52.509Z,97861.25
2022-08-22T17:57:06.359Z,97884.31
2022-08-22T18:02:20.272Z,97885.16
2022-08-22T18:07:45.885Z,97892.06
2022-08-22T18:13:06.677Z,97899.50
2022-08-22T18:18:31.439Z,97908.75
2022-08-22T18:23:43.945Z,97910.50
2022-08-22T18:28:55.778Z,97911.25
2022-08-22T18:34:15.196Z,97930.56
2022-08-22T18:39:29.403Z,97929.38
2022-08-22T18:44:37.602Z,97936.94
2022-08-22T18:49:55.015Z,97937.59
2022-08-22T18:55:40.308Z,97945.81
2022-08-22T19:01:05.404Z,97950.94
2022-08-22T19:06:45.937Z,97948.63
2022-08-22T19:12:04.669Z,97956.31
2022-08-22T19:17:55.435Z,97959.88
2022-08-22T19:23:47.429Z,97964.19
2022-08-22T19:28:55.640Z,97970.75
2022-08-22T19:34:40.257Z,97973.50
2022-08-22T19:39:56.103Z,97978.28
2022-08-22T19:45:26.744Z,97972.19
2022-08-22T19:50:36.649Z,97978.50
2022-08-22T19:56:05.547Z,97980.34
2022-08-22T20:01:46.528Z,97987.63
2022-08-22T20:07:15.963Z,97989.97
2022-08-22T20:20:17.725Z,97996.47
2022-08-22T20:26:03.363Z,98000.13
2022-08-22T20:31:33.343Z,98004.81
2022-08-22T20:37:35.551Z,98005.16
2022-08-22T20:43:11.626Z,98010.06
2022-08-22T20:49:14.194Z,98006.03
2022-08-22T20:55:39.433Z,98002.91
2022-08-22T21:01:22.884Z,98005.72
2022-08-22T21:07:03.303Z,98004.31
2022-08-22T21:12:12.252Z,98011.19
2022-08-22T21:17:24.939Z,98007.41
2022-08-22T21:22:33.884Z,98004.03
2022-08-22T21:27:39.816Z,98015.53
2022-08-22T21:32:55.045Z,98002.66
2022-08-22T21:38:02.719Z,98007.47
2022-08-22T21:43:13.439Z,98015.50
2022-08-22T21:48:40.639Z,98007.19
2022-08-22T21:53:44.823Z,98012.00
2022-08-22T21:58:50.734Z,98017.63
2022-08-22T22:03:56.183Z,98022.56
2022-08-22T22:09:00.346Z,98021.34
2022-08-22T22:14:06.439Z,98026.19
2022-08-22T22:19:10.903Z,98033.50
2022-08-22T22:24:15.187Z,98043.06
2022-08-22T22:29:21.072Z,98043.94
2022-08-22T22:34:25.691Z,98050.97
2022-08-22T22:39:30.107Z,98043.88
2022-08-22T22:44:35.780Z,98053.06
2022-08-22T22:49:40.326Z,98049.38
2022-08-22T22:54:45.595Z,98047.25
2022-08-22T22:59:51.912Z,98050.41
2022-08-22T23:04:58.303Z,98062.56
2022-08-22T23:10:05.067Z,98065.81
2022-08-22T23:15:12.846Z,98071.09
2022-08-22T23:20:17.186Z,98072.66
2022-08-22T23:25:21.586Z,98072.09
2022-08-22T23:30:27.276Z,98085.19
2022-08-22T23:35:31.487Z,98088.75
2022-08-22T23:40:35.747Z,98094.72
2022-08-22T23:45:41.329Z,98095.69
2022-08-22T23:50:45.699Z,98094.00
2022-08-22T23:55:50.089Z,98096.63
